MSC Nuria — 3ESE2 — position and weather

sailwx.info

Track history (hours):
 
Tides and Currents Weather Stations Pressure Air Temp Water Temp Dewpoint Dewpoint Depression Visibility Wind Speed Wind Dir Waves Ship Positions

MSC Nuria

Last reported at 2016-Jun-30 10:34 UTC. Time now 2016-Jun-30 10:39 UTC.
Position N 53°58' E 008°34'.

Length 275 m; draft 10 m.

Type: Ship (hazmat cat A). MMSI: 370272977.

Date/timePositionNaut miles runAvg speedWind from/ knotsBaromVisibWave heightAir tempDewpointWater temp
2016-Jun-30 10:34N 53°58' E 008°34'1413.5
2016-Jun-30 09:33N 53°51' E 008°54'1110.9
2016-Jun-30 08:33N 53°53' E 009°12'1211.5
2016-Jun-30 07:33N 53°45' E 009°25'1111.1
2016-Jun-30 06:33N 53°36' E 009°36'9 8.6
2016-Jun-30 05:33N 53°33' E 009°50'3 2.5
2016-Jun-30 04:33N 53°32' E 009°54'0 0.0
2016-Jun-30 03:30N 53°32' E 009°54'0 0.0
2016-Jun-30 02:33N 53°32' E 009°54'0 0.0
2016-Jun-30 01:32N 53°32' E 009°54'0 0.0
2016-Jun-30 00:32N 53°32' E 009°54'0 0.0
2016-Jun-29 23:31N 53°32' E 009°54'0 0.0
2016-Jun-29 22:33N 53°32' E 009°54'0 0.0
2016-Jun-29 21:33N 53°32' E 009°54'0 0.0
2016-Jun-29 20:33N 53°32' E 009°54'0 0.0
2016-Jun-29 19:32N 53°32' E 009°54'0 0.0
2016-Jun-29 18:32N 53°32' E 009°54'0 0.0
2016-Jun-29 17:32N 53°32' E 009°54'0 0.0
2016-Jun-29 16:31N 53°32' E 009°54'0 0.0
2016-Jun-29 15:31N 53°32' E 009°54'0 0.0
2016-Jun-29 14:33N 53°32' E 009°54'3 2.8
2016-Jun-29 13:33N 53°33' E 009°50'8 8.2
2016-Jun-29 12:33N 53°35' E 009°36'10 9.8
2016-Jun-29 11:33N 53°44' E 009°27'1212.3
2016-Jun-29 10:34N 53°53' E 009°13'1111.2
2016-Jun-29 09:34N 53°51' E 008°55'1110.7
2016-Jun-29 08:34N 53°56' E 008°39'1616.2
2016-Jun-29 07:33N 53°60' E 008°12'1717.1
2016-Jun-29 06:33N 53°54' E 007°45'1615.6
2016-Jun-29 05:33N 53°48' E 008°09'1615.7
2016-Jun-29 04:33N 53°37' E 008°29'4 3.4
2016-Jun-29 03:31N 53°34' E 008°32'0 0.0
2016-Jun-29 02:28N 53°34' E 008°32'0 0.0
2016-Jun-29 01:33N 53°34' E 008°32'0 0.0
2016-Jun-29 00:33N 53°34' E 008°32'0 0.0
2016-Jun-28 23:32N 53°34' E 008°32'0 0.0
2016-Jun-28 22:32N 53°34' E 008°32'0 0.0
2016-Jun-28 21:29N 53°34' E 008°32'0 0.0
2016-Jun-28 20:31N 53°34' E 008°32'0 0.0
2016-Jun-28 19:31N 53°34' E 008°32'0 0.0
2016-Jun-28 18:30N 53°34' E 008°32'0 0.0
2016-Jun-28 17:33N 53°34' E 008°32'0 0.0
2016-Jun-28 16:29N 53°34' E 008°32'0 0.0
2016-Jun-28 15:32N 53°34' E 008°32'0 0.0
2016-Jun-28 14:32N 53°34' E 008°32'0 0.0
2016-Jun-28 13:28N 53°34' E 008°32'0 0.0
2016-Jun-28 12:31N 53°34' E 008°32'0 0.0
2016-Jun-28 11:33N 53°34' E 008°32'0 0.0
2016-Jun-28 10:33N 53°34' E 008°32'0 0.0
2016-Jun-28 09:32N 53°34' E 008°32'0 0.0
2016-Jun-28 08:32N 53°34' E 008°32'0 0.0
2016-Jun-28 07:32N 53°34' E 008°32'0 0.0
2016-Jun-28 06:31N 53°34' E 008°32'2512.7
2016-Jun-28 04:33N 53°51' E 008°01'8 8.3
2016-Jun-28 03:34N 53°54' E 007°47'1 1.3
2016-Jun-28 02:32N 53°55' E 007°47'0 0.0
2016-Jun-28 01:25N 53°55' E 007°47'0 0.0
2016-Jun-28 00:31N 53°55' E 007°47'0 0.0
2016-Jun-27 23:33N 53°55' E 007°47'0 0.0
2016-Jun-27 22:33N 53°55' E 007°47'0 0.0
2016-Jun-27 21:32N 53°55' E 007°47'0 0.0
2016-Jun-27 20:32N 53°55' E 007°47'0 0.0
2016-Jun-27 19:32N 53°55' E 007°47'0 0.0
2016-Jun-27 18:28N 53°55' E 007°47'0 0.0
2016-Jun-27 17:31N 53°55' E 007°47'0 0.0
2016-Jun-27 16:33N 53°55' E 007°47'0 0.0
2016-Jun-27 15:33N 53°55' E 007°47'1 0.8
2016-Jun-27 14:33N 53°56' E 007°47'1414.0
2016-Jun-27 13:33N 53°53' E 007°24'1514.6
2016-Jun-27 12:33N 53°50' E 006°60'1514.8
2016-Jun-27 11:34N 53°47' E 006°35'1515.4
2016-Jun-27 10:34N 53°43' E 006°10'1615.7
2016-Jun-27 09:33N 53°38' E 005°45'1615.7
2016-Jun-27 08:34N 53°32' E 005°20'1615.7
2016-Jun-27 07:34N 53°27' E 004°55'2914.7
2016-Jun-27 05:33N 53°04' E 004°25'1414.4
2016-Jun-27 04:33N 52°51' E 004°14'1414.1
2016-Jun-27 03:33N 52°40' E 004°00'1413.7
2016-Jun-27 02:30N 52°31' E 003°43'1313.5
2016-Jun-27 01:33N 52°21' E 003°29'1413.3
2016-Jun-27 00:30N 52°12' E 003°12'2713.5
2016-Jun-26 22:31N 51°59' E 002°33'1814.8
2016-Jun-26 21:18N 51°52' E 002°06'1114.8
2016-Jun-26 20:33N 51°49' E 001°49'1010.4
2016-Jun-26 19:34N 51°47' E 001°33'1918.7
2016-Jun-26 18:33N 51°34' E 001°12'1717.2
2016-Jun-26 17:33N 51°29' E 000°45'1212.3
2016-Jun-26 16:34N 51°27' E 000°26'4 3.6
2016-Jun-26 15:34N 51°28' E 000°20'0 0.0
2016-Jun-26 14:34N 51°28' E 000°20'0 0.0
2016-Jun-26 13:34N 51°28' E 000°20'0 0.0
2016-Jun-26 12:34N 51°28' E 000°20'0 0.0
2016-Jun-26 11:34N 51°28' E 000°20'0 0.0
2016-Jun-26 10:34N 51°28' E 000°20'0 0.0
2016-Jun-26 09:34N 51°28' E 000°20'0 0.0
2016-Jun-26 08:34N 51°28' E 000°20'0 0.0
2016-Jun-26 07:34N 51°28' E 000°20'0 0.0
2016-Jun-26 06:34N 51°28' E 000°20'0 0.0
2016-Jun-26 05:34N 51°28' E 000°20'0 0.0
2016-Jun-26 04:34N 51°28' E 000°20'0 0.0
2016-Jun-26 03:34N 51°28' E 000°20'0 0.0
2016-Jun-26 02:34N 51°28' E 000°20'0 0.0
2016-Jun-26 01:34N 51°28' E 000°20'0 0.0
2016-Jun-26 00:34N 51°28' E 000°20'0 0.0
2016-Jun-25 23:33N 51°28' E 000°20'0 0.0
2016-Jun-25 22:33N 51°28' E 000°20'0 0.0
2016-Jun-25 21:33N 51°28' E 000°20'0 0.0
2016-Jun-25 20:33N 51°28' E 000°20'0 0.0
2016-Jun-25 19:33N 51°28' E 000°20'0 0.0
2016-Jun-25 18:33N 51°28' E 000°20'0 0.0
2016-Jun-25 17:33N 51°28' E 000°20'0 0.4
2016-Jun-25 16:33N 51°27' E 000°20'6 5.9
2016-Jun-25 15:33N 51°30' E 000°29'1211.7
2016-Jun-25 14:33N 51°29' E 000°48'1515.1
2016-Jun-25 13:34N 51°34' E 001°11'1716.9
2016-Jun-25 12:34N 51°45' E 001°31'1211.7
2016-Jun-25 11:33N 51°50' E 001°48'1817.9
2016-Jun-25 10:33N 51°33' E 001°54'1918.7
2016-Jun-25 09:33N 51°21' E 002°17'1717.5
2016-Jun-25 08:33N 51°24' E 002°45'1414.2
2016-Jun-25 07:34N 51°24' E 003°08'1717.1
2016-Jun-25 06:33N 51°26' E 003°35'1211.9
2016-Jun-25 05:34N 51°21' E 003°52'7 7.1
2016-Jun-25 04:33N 51°23' E 004°03'9 8.7
2016-Jun-25 03:33N 51°21' E 004°17'0 0.2
2016-Jun-25 02:34N 51°21' E 004°17'2 1.9
2016-Jun-25 01:28N 51°20' E 004°20'0 0.0
2016-Jun-25 00:31N 51°20' E 004°20'0 0.1
2016-Jun-24 23:33N 51°20' E 004°20'0 0.0
2016-Jun-24 22:33N 51°20' E 004°20'0 0.0
2016-Jun-24 21:32N 51°20' E 004°20'0 0.0
2016-Jun-24 20:32N 51°20' E 004°20'0 0.0
2016-Jun-24 19:31N 51°20' E 004°20'0 0.0
2016-Jun-24 18:31N 51°20' E 004°20'0 0.0
2016-Jun-24 17:27N 51°20' E 004°20'0 0.0
2016-Jun-24 16:27N 51°20' E 004°20'0 0.0
2016-Jun-24 15:30N 51°20' E 004°20'0 0.0
2016-Jun-24 14:32N 51°20' E 004°20'0 0.0
2016-Jun-24 13:32N 51°20' E 004°20'0 0.0
2016-Jun-24 12:31N 51°20' E 004°20'0 0.0
2016-Jun-24 11:31N 51°20' E 004°20'0 0.0
2016-Jun-24 10:30N 51°20' E 004°20'0 0.0
2016-Jun-24 09:33N 51°20' E 004°20'0 0.0
2016-Jun-24 08:33N 51°20' E 004°20'0 0.0
2016-Jun-24 07:17N 51°20' E 004°20'0 0.0
2016-Jun-24 04:28N 51°20' E 004°20'0 0.0
2016-Jun-24 03:34N 51°20' E 004°20'0 0.0
2016-Jun-24 02:33N 51°20' E 004°20'0 0.0
2016-Jun-24 01:33N 51°20' E 004°20'0 0.0
2016-Jun-24 00:32N 51°20' E 004°20'0 0.0
2016-Jun-23 23:29N 51°20' E 004°20'0 0.1
2016-Jun-23 22:31N 51°20' E 004°20'0 0.0
2016-Jun-23 21:33N 51°20' E 004°20'0 0.3
2016-Jun-23 20:33N 51°20' E 004°19'2 1.7
2016-Jun-23 19:33N 51°21' E 004°17'0 0.2
2016-Jun-23 18:33N 51°21' E 004°17'3 2.6
2016-Jun-23 17:33N 51°22' E 004°13'7 6.9
2016-Jun-23 16:33N 51°23' E 004°02'8 8.3
2016-Jun-23 15:34N 51°21' E 003°50'1111.1
2016-Jun-23 14:33N 51°25' E 003°33'1716.6
2016-Jun-23 13:33N 51°24' E 003°07'7 6.6
2016-Jun-23 12:33N 51°30' E 003°05'1212.1
2016-Jun-23 11:33N 51°41' E 003°13'7 7.1
2016-Jun-23 10:33N 51°47' E 003°19'0 0.0
2016-Jun-23 08:28N 51°47' E 003°19'0 0.0
2016-Jun-23 07:24N 51°47' E 003°19'0 0.0
2016-Jun-23 02:31N 51°47' E 003°19'0 0.0
2016-Jun-23 01:31N 51°47' E 003°19'0 0.1
2016-Jun-23 00:33N 51°47' E 003°19'10 9.3
2016-Jun-22 23:31N 51°57' E 003°19'1212.9
2016-Jun-22 22:34N 52°03' E 003°37'1312.8
2016-Jun-22 21:34N 52°01' E 003°57'5 5.2
2016-Jun-22 20:31N 51°58' E 004°04'0 0.0
2016-Jun-22 19:33N 51°58' E 004°04'0 0.0
2016-Jun-22 18:33N 51°58' E 004°04'0 0.0
2016-Jun-22 17:32N 51°58' E 004°04'0 0.0
2016-Jun-22 16:32N 51°58' E 004°04'0 0.0
2016-Jun-22 15:32N 51°58' E 004°04'0 0.0
2016-Jun-22 14:31N 51°58' E 004°04'0 0.0
2016-Jun-22 13:31N 51°58' E 004°04'0 0.0
2016-Jun-22 12:33N 51°58' E 004°04'0 0.0
2016-Jun-22 11:33N 51°58' E 004°04'0 0.0
2016-Jun-22 10:32N 51°58' E 004°04'0 0.0
2016-Jun-22 09:32N 51°58' E 004°04'0 0.0
2016-Jun-22 08:32N 51°58' E 004°04'0 0.0
2016-Jun-22 07:31N 51°58' E 004°04'0 0.0
2016-Jun-22 06:31N 51°58' E 004°04'0 0.0
2016-Jun-22 05:33N 51°58' E 004°04'0 0.0
2016-Jun-22 04:32N 51°58' E 004°04'0 0.0
2016-Jun-22 03:32N 51°58' E 004°04'0 0.0
2016-Jun-22 02:31N 51°58' E 004°04'0 0.0
2016-Jun-22 01:31N 51°58' E 004°04'0 0.0
2016-Jun-22 00:33N 51°58' E 004°04'0 0.0
2016-Jun-21 23:33N 51°58' E 004°04'0 0.0
2016-Jun-21 22:33N 51°58' E 004°04'0 0.0
2016-Jun-21 21:32N 51°58' E 004°04'0 0.0
2016-Jun-21 20:32N 51°58' E 004°04'0 0.0
2016-Jun-21 19:31N 51°58' E 004°04'0 0.0
2016-Jun-21 18:31N 51°58' E 004°04'0 0.0
2016-Jun-21 17:33N 51°58' E 004°04'0 0.0
2016-Jun-21 16:33N 51°58' E 004°04'0 0.0
2016-Jun-21 15:33N 51°58' E 004°04'0 0.0
2016-Jun-21 14:32N 51°58' E 004°04'0 0.0
2016-Jun-21 13:32N 51°58' E 004°04'0 0.0
2016-Jun-21 12:31N 51°58' E 004°04'0 0.0
2016-Jun-21 11:31N 51°58' E 004°04'3 3.4
2016-Jun-21 10:33N 51°60' E 004°00'1111.4
2016-Jun-21 09:33N 51°59' E 003°42'3514.8
2016-Jun-21 07:11N 51°48' E 002°48'2414.9
2016-Jun-21 05:34N 51°33' E 002°17'1515.4
2016-Jun-21 04:33N 51°22' E 002°01'1615.6
2016-Jun-21 03:34N 51°10' E 001°44'1616.2
2016-Jun-21 02:34N 50°57' E 001°29'1716.7
2016-Jun-21 01:33N 50°42' E 001°18'3215.8
2016-Jun-20 23:33N 50°26' E 000°35'1616.4
2016-Jun-20 22:33N 50°22' E 000°10'1717.3
2016-Jun-20 21:33N 50°18' W 000°17'1918.8
2016-Jun-20 20:33N 50°12' W 000°45'7819.5
2016-Jun-20 16:34N 49°51' W 002°41'1918.5
2016-Jun-20 15:34N 49°45' W 003°08'  
Track history (hours):
 
Tides and Currents Weather Stations Pressure Air Temp Water Temp Dewpoint Dewpoint Depression Visibility Wind Speed Wind Dir Waves Ship Positions

MSC Nuria

Last reported at 2016-Jun-30 10:34 UTC. Time now 2016-Jun-30 10:39 UTC.
Position N 53°58' E 008°34'.

Length 275 m; draft 10 m.

Type: Ship (hazmat cat A). MMSI: 370272977.

Date/timePositionNaut miles runAvg speedWind from/ knotsBaromVisibWave heightAir tempDewpointWater temp
2016-Jun-30 10:34N 53°58' E 008°34'1413.5
2016-Jun-30 09:33N 53°51' E 008°54'1110.9
2016-Jun-30 08:33N 53°53' E 009°12'1211.5
2016-Jun-30 07:33N 53°45' E 009°25'1111.1
2016-Jun-30 06:33N 53°36' E 009°36'9 8.6
2016-Jun-30 05:33N 53°33' E 009°50'3 2.5
2016-Jun-30 04:33N 53°32' E 009°54'0 0.0
2016-Jun-30 03:30N 53°32' E 009°54'0 0.0
2016-Jun-30 02:33N 53°32' E 009°54'0 0.0
2016-Jun-30 01:32N 53°32' E 009°54'0 0.0
2016-Jun-30 00:32N 53°32' E 009°54'0 0.0
2016-Jun-29 23:31N 53°32' E 009°54'0 0.0
2016-Jun-29 22:33N 53°32' E 009°54'0 0.0
2016-Jun-29 21:33N 53°32' E 009°54'0 0.0
2016-Jun-29 20:33N 53°32' E 009°54'0 0.0
2016-Jun-29 19:32N 53°32' E 009°54'0 0.0
2016-Jun-29 18:32N 53°32' E 009°54'0 0.0
2016-Jun-29 17:32N 53°32' E 009°54'0 0.0
2016-Jun-29 16:31N 53°32' E 009°54'0 0.0
2016-Jun-29 15:31N 53°32' E 009°54'0 0.0
2016-Jun-29 14:33N 53°32' E 009°54'3 2.8
2016-Jun-29 13:33N 53°33' E 009°50'8 8.2
2016-Jun-29 12:33N 53°35' E 009°36'10 9.8
2016-Jun-29 11:33N 53°44' E 009°27'1212.3
2016-Jun-29 10:34N 53°53' E 009°13'1111.2
2016-Jun-29 09:34N 53°51' E 008°55'1110.7
2016-Jun-29 08:34N 53°56' E 008°39'1616.2
2016-Jun-29 07:33N 53°60' E 008°12'1717.1
2016-Jun-29 06:33N 53°54' E 007°45'1615.6
2016-Jun-29 05:33N 53°48' E 008°09'1615.7
2016-Jun-29 04:33N 53°37' E 008°29'4 3.4
2016-Jun-29 03:31N 53°34' E 008°32'0 0.0
2016-Jun-29 02:28N 53°34' E 008°32'0 0.0
2016-Jun-29 01:33N 53°34' E 008°32'0 0.0
2016-Jun-29 00:33N 53°34' E 008°32'0 0.0
2016-Jun-28 23:32N 53°34' E 008°32'0 0.0
2016-Jun-28 22:32N 53°34' E 008°32'0 0.0
2016-Jun-28 21:29N 53°34' E 008°32'0 0.0
2016-Jun-28 20:31N 53°34' E 008°32'0 0.0
2016-Jun-28 19:31N 53°34' E 008°32'0 0.0
2016-Jun-28 18:30N 53°34' E 008°32'0 0.0
2016-Jun-28 17:33N 53°34' E 008°32'0 0.0
2016-Jun-28 16:29N 53°34' E 008°32'0 0.0
2016-Jun-28 15:32N 53°34' E 008°32'0 0.0
2016-Jun-28 14:32N 53°34' E 008°32'0 0.0
2016-Jun-28 13:28N 53°34' E 008°32'0 0.0
2016-Jun-28 12:31N 53°34' E 008°32'0 0.0
2016-Jun-28 11:33N 53°34' E 008°32'0 0.0
2016-Jun-28 10:33N 53°34' E 008°32'0 0.0
2016-Jun-28 09:32N 53°34' E 008°32'0 0.0
2016-Jun-28 08:32N 53°34' E 008°32'0 0.0
2016-Jun-28 07:32N 53°34' E 008°32'0 0.0
2016-Jun-28 06:31N 53°34' E 008°32'2512.7
2016-Jun-28 04:33N 53°51' E 008°01'8 8.3
2016-Jun-28 03:34N 53°54' E 007°47'1 1.3
2016-Jun-28 02:32N 53°55' E 007°47'0 0.0
2016-Jun-28 01:25N 53°55' E 007°47'0 0.0
2016-Jun-28 00:31N 53°55' E 007°47'0 0.0
2016-Jun-27 23:33N 53°55' E 007°47'0 0.0
2016-Jun-27 22:33N 53°55' E 007°47'0 0.0
2016-Jun-27 21:32N 53°55' E 007°47'0 0.0
2016-Jun-27 20:32N 53°55' E 007°47'0 0.0
2016-Jun-27 19:32N 53°55' E 007°47'0 0.0
2016-Jun-27 18:28N 53°55' E 007°47'0 0.0
2016-Jun-27 17:31N 53°55' E 007°47'0 0.0
2016-Jun-27 16:33N 53°55' E 007°47'0 0.0
2016-Jun-27 15:33N 53°55' E 007°47'1 0.8
2016-Jun-27 14:33N 53°56' E 007°47'1414.0
2016-Jun-27 13:33N 53°53' E 007°24'1514.6
2016-Jun-27 12:33N 53°50' E 006°60'1514.8
2016-Jun-27 11:34N 53°47' E 006°35'1515.4
2016-Jun-27 10:34N 53°43' E 006°10'1615.7
2016-Jun-27 09:33N 53°38' E 005°45'1615.7
2016-Jun-27 08:34N 53°32' E 005°20'1615.7
2016-Jun-27 07:34N 53°27' E 004°55'2914.7
2016-Jun-27 05:33N 53°04' E 004°25'1414.4
2016-Jun-27 04:33N 52°51' E 004°14'1414.1
2016-Jun-27 03:33N 52°40' E 004°00'1413.7
2016-Jun-27 02:30N 52°31' E 003°43'1313.5
2016-Jun-27 01:33N 52°21' E 003°29'1413.3
2016-Jun-27 00:30N 52°12' E 003°12'2713.5
2016-Jun-26 22:31N 51°59' E 002°33'1814.8
2016-Jun-26 21:18N 51°52' E 002°06'1114.8
2016-Jun-26 20:33N 51°49' E 001°49'1010.4
2016-Jun-26 19:34N 51°47' E 001°33'1918.7
2016-Jun-26 18:33N 51°34' E 001°12'1717.2
2016-Jun-26 17:33N 51°29' E 000°45'1212.3
2016-Jun-26 16:34N 51°27' E 000°26'4 3.6
2016-Jun-26 15:34N 51°28' E 000°20'0 0.0
2016-Jun-26 14:34N 51°28' E 000°20'0 0.0
2016-Jun-26 13:34N 51°28' E 000°20'0 0.0
2016-Jun-26 12:34N 51°28' E 000°20'0 0.0
2016-Jun-26 11:34N 51°28' E 000°20'0 0.0
2016-Jun-26 10:34N 51°28' E 000°20'0 0.0
2016-Jun-26 09:34N 51°28' E 000°20'0 0.0
2016-Jun-26 08:34N 51°28' E 000°20'0 0.0
2016-Jun-26 07:34N 51°28' E 000°20'0 0.0
2016-Jun-26 06:34N 51°28' E 000°20'0 0.0
2016-Jun-26 05:34N 51°28' E 000°20'0 0.0
2016-Jun-26 04:34N 51°28' E 000°20'0 0.0
2016-Jun-26 03:34N 51°28' E 000°20'0 0.0
2016-Jun-26 02:34N 51°28' E 000°20'0 0.0
2016-Jun-26 01:34N 51°28' E 000°20'0 0.0
2016-Jun-26 00:34N 51°28' E 000°20'0 0.0
2016-Jun-25 23:33N 51°28' E 000°20'0 0.0
2016-Jun-25 22:33N 51°28' E 000°20'0 0.0
2016-Jun-25 21:33N 51°28' E 000°20'0 0.0
2016-Jun-25 20:33N 51°28' E 000°20'0 0.0
2016-Jun-25 19:33N 51°28' E 000°20'0 0.0
2016-Jun-25 18:33N 51°28' E 000°20'0 0.0
2016-Jun-25 17:33N 51°28' E 000°20'0 0.4
2016-Jun-25 16:33N 51°27' E 000°20'6 5.9
2016-Jun-25 15:33N 51°30' E 000°29'1211.7
2016-Jun-25 14:33N 51°29' E 000°48'1515.1
2016-Jun-25 13:34N 51°34' E 001°11'1716.9
2016-Jun-25 12:34N 51°45' E 001°31'1211.7
2016-Jun-25 11:33N 51°50' E 001°48'1817.9
2016-Jun-25 10:33N 51°33' E 001°54'1918.7
2016-Jun-25 09:33N 51°21' E 002°17'1717.5
2016-Jun-25 08:33N 51°24' E 002°45'1414.2
2016-Jun-25 07:34N 51°24' E 003°08'1717.1
2016-Jun-25 06:33N 51°26' E 003°35'1211.9
2016-Jun-25 05:34N 51°21' E 003°52'7 7.1
2016-Jun-25 04:33N 51°23' E 004°03'9 8.7
2016-Jun-25 03:33N 51°21' E 004°17'0 0.2
2016-Jun-25 02:34N 51°21' E 004°17'2 1.9
2016-Jun-25 01:28N 51°20' E 004°20'0 0.0
2016-Jun-25 00:31N 51°20' E 004°20'0 0.1
2016-Jun-24 23:33N 51°20' E 004°20'0 0.0
2016-Jun-24 22:33N 51°20' E 004°20'0 0.0
2016-Jun-24 21:32N 51°20' E 004°20'0 0.0
2016-Jun-24 20:32N 51°20' E 004°20'0 0.0
2016-Jun-24 19:31N 51°20' E 004°20'0 0.0
2016-Jun-24 18:31N 51°20' E 004°20'0 0.0
2016-Jun-24 17:27N 51°20' E 004°20'0 0.0
2016-Jun-24 16:27N 51°20' E 004°20'0 0.0
2016-Jun-24 15:30N 51°20' E 004°20'0 0.0
2016-Jun-24 14:32N 51°20' E 004°20'0 0.0
2016-Jun-24 13:32N 51°20' E 004°20'0 0.0
2016-Jun-24 12:31N 51°20' E 004°20'0 0.0
2016-Jun-24 11:31N 51°20' E 004°20'0 0.0
2016-Jun-24 10:30N 51°20' E 004°20'0 0.0
2016-Jun-24 09:33N 51°20' E 004°20'0 0.0
2016-Jun-24 08:33N 51°20' E 004°20'0 0.0
2016-Jun-24 07:17N 51°20' E 004°20'0 0.0
2016-Jun-24 04:28N 51°20' E 004°20'0 0.0
2016-Jun-24 03:34N 51°20' E 004°20'0 0.0
2016-Jun-24 02:33N 51°20' E 004°20'0 0.0
2016-Jun-24 01:33N 51°20' E 004°20'0 0.0
2016-Jun-24 00:32N 51°20' E 004°20'0 0.0
2016-Jun-23 23:29N 51°20' E 004°20'0 0.1
2016-Jun-23 22:31N 51°20' E 004°20'0 0.0
2016-Jun-23 21:33N 51°20' E 004°20'0 0.3
2016-Jun-23 20:33N 51°20' E 004°19'2 1.7
2016-Jun-23 19:33N 51°21' E 004°17'0 0.2
2016-Jun-23 18:33N 51°21' E 004°17'3 2.6
2016-Jun-23 17:33N 51°22' E 004°13'7 6.9
2016-Jun-23 16:33N 51°23' E 004°02'8 8.3
2016-Jun-23 15:34N 51°21' E 003°50'1111.1
2016-Jun-23 14:33N 51°25' E 003°33'1716.6
2016-Jun-23 13:33N 51°24' E 003°07'7 6.6
2016-Jun-23 12:33N 51°30' E 003°05'1212.1
2016-Jun-23 11:33N 51°41' E 003°13'7 7.1
2016-Jun-23 10:33N 51°47' E 003°19'0 0.0
2016-Jun-23 08:28N 51°47' E 003°19'0 0.0
2016-Jun-23 07:24N 51°47' E 003°19'0 0.0
2016-Jun-23 02:31N 51°47' E 003°19'0 0.0
2016-Jun-23 01:31N 51°47' E 003°19'0 0.1
2016-Jun-23 00:33N 51°47' E 003°19'10 9.3
2016-Jun-22 23:31N 51°57' E 003°19'1212.9
2016-Jun-22 22:34N 52°03' E 003°37'1312.8
2016-Jun-22 21:34N 52°01' E 003°57'5 5.2
2016-Jun-22 20:31N 51°58' E 004°04'0 0.0
2016-Jun-22 19:33N 51°58' E 004°04'0 0.0
2016-Jun-22 18:33N 51°58' E 004°04'0 0.0
2016-Jun-22 17:32N 51°58' E 004°04'0 0.0
2016-Jun-22 16:32N 51°58' E 004°04'0 0.0
2016-Jun-22 15:32N 51°58' E 004°04'0 0.0
2016-Jun-22 14:31N 51°58' E 004°04'0 0.0
2016-Jun-22 13:31N 51°58' E 004°04'0 0.0
2016-Jun-22 12:33N 51°58' E 004°04'0 0.0
2016-Jun-22 11:33N 51°58' E 004°04'0 0.0
2016-Jun-22 10:32N 51°58' E 004°04'0 0.0
2016-Jun-22 09:32N 51°58' E 004°04'0 0.0
2016-Jun-22 08:32N 51°58' E 004°04'0 0.0
2016-Jun-22 07:31N 51°58' E 004°04'0 0.0
2016-Jun-22 06:31N 51°58' E 004°04'0 0.0
2016-Jun-22 05:33N 51°58' E 004°04'0 0.0
2016-Jun-22 04:32N 51°58' E 004°04'0 0.0
2016-Jun-22 03:32N 51°58' E 004°04'0 0.0
2016-Jun-22 02:31N 51°58' E 004°04'0 0.0
2016-Jun-22 01:31N 51°58' E 004°04'0 0.0
2016-Jun-22 00:33N 51°58' E 004°04'0 0.0
2016-Jun-21 23:33N 51°58' E 004°04'0 0.0
2016-Jun-21 22:33N 51°58' E 004°04'0 0.0
2016-Jun-21 21:32N 51°58' E 004°04'0 0.0
2016-Jun-21 20:32N 51°58' E 004°04'0 0.0
2016-Jun-21 19:31N 51°58' E 004°04'0 0.0
2016-Jun-21 18:31N 51°58' E 004°04'0 0.0
2016-Jun-21 17:33N 51°58' E 004°04'0 0.0
2016-Jun-21 16:33N 51°58' E 004°04'0 0.0
2016-Jun-21 15:33N 51°58' E 004°04'0 0.0
2016-Jun-21 14:32N 51°58' E 004°04'0 0.0
2016-Jun-21 13:32N 51°58' E 004°04'0 0.0
2016-Jun-21 12:31N 51°58' E 004°04'0 0.0
2016-Jun-21 11:31N 51°58' E 004°04'3 3.4
2016-Jun-21 10:33N 51°60' E 004°00'1111.4
2016-Jun-21 09:33N 51°59' E 003°42'3514.8
2016-Jun-21 07:11N 51°48' E 002°48'2414.9
2016-Jun-21 05:34N 51°33' E 002°17'1515.4
2016-Jun-21 04:33N 51°22' E 002°01'1615.6
2016-Jun-21 03:34N 51°10' E 001°44'1616.2
2016-Jun-21 02:34N 50°57' E 001°29'1716.7
2016-Jun-21 01:33N 50°42' E 001°18'3215.8
2016-Jun-20 23:33N 50°26' E 000°35'1616.4
2016-Jun-20 22:33N 50°22' E 000°10'1717.3
2016-Jun-20 21:33N 50°18' W 000°17'1918.8
2016-Jun-20 20:33N 50°12' W 000°45'7819.5
2016-Jun-20 16:34N 49°51' W 002°41'1918.5
2016-Jun-20 15:34N 49°45' W 003°08'  

Dump ship's entire track history